Time;durP1;ratioP1;P1;durP2;ratioP2;P2;SDS_P1;SDS_P2;PMS_P1;PMS_P2;Temp;Humidity;BMP_temperature;BMP_pressure;BME280_temperature;BME280_humidity;BME280_pressure;Samples;Min_cycle;Max_cycle;Signal;HPM_P1;HPM_P2
2021/07/28 00:00:36;;;;;;;2.43;2.23;;;18.70;99.90;;;;;;5093381;28;20456;-84
2021/07/28 00:03:04;;;;;;;1.37;1.27;;;18.80;99.90;;;;;;5093452;28;20447;-83
2021/07/28 00:05:31;;;;;;;3.10;1.57;;;18.70;99.90;;;;;;5093428;28;20554;-84
2021/07/28 00:07:58;;;;;;;2.07;1.50;;;18.70;99.90;;;;;;5093457;28;20815;-84
2021/07/28 00:10:24;;;;;;;1.70;0.93;;;18.70;99.90;;;;;;5093322;28;20503;-84
2021/07/28 00:12:51;;;;;;;3.23;1.90;;;18.70;99.90;;;;;;5093326;28;20452;-84
2021/07/28 00:15:18;;;;;;;1.50;1.17;;;18.70;99.90;;;;;;5093628;28;20452;-84
2021/07/28 00:17:47;;;;;;;1.00;1.00;;;18.70;99.90;;;;;;5093197;28;20974;-83
2021/07/28 00:20:21;;;;;;;0.90;0.90;;;18.70;99.90;;;;;;5093475;28;20562;-83
2021/07/28 00:25:35;;;;;;;3.83;1.13;;;18.70;99.90;;;;;;5093374;28;20411;-83
2021/07/28 00:28:02;;;;;;;1.97;1.13;;;18.70;99.90;;;;;;5093114;28;20935;-83
2021/07/28 00:30:29;;;;;;;1.80;1.20;;;18.70;99.90;;;;;;5093195;28;20497;-84
2021/07/28 00:32:55;;;;;;;3.30;1.53;;;18.70;99.90;;;;;;5092894;28;20943;-84
2021/07/28 00:35:24;;;;;;;3.23;1.40;;;18.70;99.90;;;;;;5092940;28;20470;-83
2021/07/28 00:37:51;;;;;;;2.07;1.90;;;18.60;99.90;;;;;;5093514;28;20497;-83
2021/07/28 00:40:18;;;;;;;3.47;1.33;;;18.60;99.90;;;;;;5097570;28;20552;-83
2021/07/28 00:42:45;;;;;;;2.10;1.50;;;18.60;99.90;;;;;;5096980;28;20459;-83
2021/07/28 00:45:12;;;;;;;3.33;1.23;;;18.60;99.90;;;;;;5096879;28;20451;-83
2021/07/28 00:47:39;;;;;;;6.87;1.80;;;18.60;99.90;;;;;;5096833;28;20435;-83
2021/07/28 00:50:08;;;;;;;0.77;0.77;;;18.60;99.90;;;;;;5096596;28;20487;-83
2021/07/28 00:52:38;;;;;;;1.37;1.03;;;18.50;99.90;;;;;;5097058;28;20443;-83
2021/07/28 00:55:06;;;;;;;0.80;0.80;;;18.50;99.90;;;;;;5096809;28;20439;-83
2021/07/28 00:57:33;;;;;;;7.47;1.67;;;18.50;99.90;;;;;;5096307;28;20935;-84
2021/07/28 01:00:01;;;;;;;1.57;1.13;;;18.40;99.90;;;;;;5096580;28;20474;-84
2021/07/28 01:02:28;;;;;;;2.00;1.30;;;18.40;99.90;;;;;;5096562;28;20475;-84
2021/07/28 01:04:55;;;;;;;1.43;1.33;;;18.40;99.90;;;;;;5096516;28;20452;-84
2021/07/28 01:07:21;;;;;;;1.70;1.10;;;18.40;99.90;;;;;;5096460;28;20467;-83
2021/07/28 01:09:49;;;;;;;1.80;1.30;;;18.40;99.90;;;;;;5096324;28;20475;-83
2021/07/28 01:12:16;;;;;;;3.20;1.20;;;18.30;99.90;;;;;;5096112;28;20942;-83
2021/07/28 01:14:44;;;;;;;0.90;0.80;;;18.30;99.90;;;;;;5096338;28;20574;-83
2021/07/28 01:17:11;;;;;;;2.00;1.00;;;18.20;99.90;;;;;;5096259;28;20849;-83
2021/07/28 01:19:47;;;;;;;2.10;1.13;;;18.20;99.90;;;;;;5096264;28;20521;-83
2021/07/28 01:22:14;;;;;;;1.63;0.90;;;18.20;99.90;;;;;;5096306;28;20443;-84
2021/07/28 01:24:42;;;;;;;1.57;0.80;;;18.20;99.90;;;;;;5096234;28;20962;-83
2021/07/28 01:27:09;;;;;;;1.23;0.80;;;18.30;99.90;;;;;;5096220;28;20802;-84
2021/07/28 01:29:36;;;;;;;2.63;1.60;;;18.20;99.90;;;;;;5095919;28;20476;-84
2021/07/28 01:32:03;;;;;;;3.17;1.33;;;18.30;99.90;;;;;;5096072;28;20452;-84
2021/07/28 01:34:30;;;;;;;1.40;1.13;;;18.20;99.90;;;;;;5095857;28;20459;-84
2021/07/28 01:37:00;;;;;;;5.70;1.50;;;18.20;99.90;;;;;;5095804;28;20439;-84
2021/07/28 01:39:27;;;;;;;1.10;0.70;;;18.20;99.90;;;;;;5095669;28;20468;-85
2021/07/28 01:42:01;;;;;;;3.27;1.70;;;18.20;99.90;;;;;;5095654;28;20971;-84
2021/07/28 01:44:28;;;;;;;1.47;1.00;;;18.10;99.90;;;;;;5095899;28;20447;-84
2021/07/28 01:46:55;;;;;;;1.03;0.93;;;18.10;99.90;;;;;;5095941;28;20440;-84
2021/07/28 01:49:21;;;;;;;1.57;1.00;;;18.00;99.90;;;;;;5095100;28;20441;-84
2021/07/28 01:51:48;;;;;;;1.37;1.00;;;18.00;99.90;;;;;;5096037;28;20475;-83
2021/07/28 01:54:15;;;;;;;2.80;1.17;;;17.90;99.90;;;;;;5095607;28;20447;-83
2021/07/28 01:56:44;;;;;;;0.90;0.90;;;17.90;99.90;;;;;;5095482;28;20785;-83
2021/07/28 01:59:14;;;;;;;0.53;0.53;;;17.90;99.90;;;;;;5095630;28;20425;-83
2021/07/28 02:01:41;;;;;;;1.10;0.87;;;17.90;99.90;;;;;;5095255;28;20428;-84
2021/07/28 02:04:08;;;;;;;0.73;0.73;;;17.80;99.90;;;;;;5095368;28;20448;-84
2021/07/28 02:06:34;;;;;;;1.60;1.40;;;17.80;99.90;;;;;;5095307;28;20456;-84
2021/07/28 02:09:01;;;;;;;1.00;0.70;;;17.80;99.90;;;;;;5095193;28;20451;-84
2021/07/28 02:11:28;;;;;;;0.70;0.70;;;17.80;99.90;;;;;;5095107;28;20538;-83
2021/07/28 02:13:55;;;;;;;1.00;0.87;;;17.80;99.90;;;;;;5095205;28;20450;-83
2021/07/28 02:16:23;;;;;;;2.27;1.27;;;17.80;99.90;;;;;;5095431;28;20443;-83
2021/07/28 02:18:50;;;;;;;4.37;0.80;;;17.80;99.90;;;;;;5094782;28;20443;-83
2021/07/28 02:21:16;;;;;;;0.97;0.83;;;17.90;99.90;;;;;;5094709;28;20467;-83
2021/07/28 02:23:43;;;;;;;0.67;0.60;;;17.90;99.90;;;;;;5094977;28;20452;-83
2021/07/28 02:26:10;;;;;;;0.80;0.80;;;17.80;99.90;;;;;;5094736;28;20794;-83
2021/07/28 02:28:36;;;;;;;1.10;1.00;;;17.80;99.90;;;;;;5094984;28;20452;-83
2021/07/28 02:31:03;;;;;;;1.83;1.20;;;17.80;99.90;;;;;;5094725;28;20483;-83
2021/07/28 02:33:32;;;;;;;2.10;1.03;;;17.70;99.90;;;;;;5095259;28;20444;-84
2021/07/28 02:35:58;;;;;;;1.03;0.93;;;17.70;99.90;;;;;;5094720;28;20451;-83
2021/07/28 02:38:25;;;;;;;1.77;1.30;;;17.70;99.90;;;;;;5094372;28;20491;-83
2021/07/28 02:40:52;;;;;;;3.07;0.70;;;17.70;99.90;;;;;;5094639;28;20471;-83
2021/07/28 02:43:18;;;;;;;4.80;1.27;;;17.70;99.90;;;;;;5094291;28;20939;-84
2021/07/28 02:45:45;;;;;;;1.27;0.63;;;17.70;99.90;;;;;;5094367;28;20432;-83
2021/07/28 02:48:12;;;;;;;1.00;0.90;;;17.60;99.90;;;;;;5094531;28;20448;-83
2021/07/28 02:50:40;;;;;;;1.07;0.83;;;17.60;99.90;;;;;;5094453;28;20488;-83
2021/07/28 02:53:06;;;;;;;0.60;0.60;;;17.60;99.90;;;;;;5094428;28;20452;-83
2021/07/28 02:55:33;;;;;;;0.70;0.70;;;17.60;99.90;;;;;;5094381;28;20890;-83
2021/07/28 02:58:00;;;;;;;1.00;1.00;;;17.60;99.90;;;;;;5094371;28;20448;-84
2021/07/28 03:00:27;;;;;;;1.63;1.17;;;17.60;99.90;;;;;;5093643;28;20460;-83
2021/07/28 03:02:53;;;;;;;1.93;1.17;;;17.50;99.90;;;;;;5093926;28;20813;-83
2021/07/28 03:05:20;;;;;;;2.87;1.60;;;17.50;99.90;;;;;;5094216;28;20448;-83
2021/07/28 03:07:48;;;;;;;1.97;0.90;;;17.50;99.90;;;;;;5094157;28;20448;-84
2021/07/28 03:10:15;;;;;;;1.40;1.23;;;17.50;99.90;;;;;;5094037;28;20471;-84
2021/07/28 03:12:42;;;;;;;0.97;0.87;;;17.50;99.90;;;;;;5093939;28;20428;-84
2021/07/28 03:15:09;;;;;;;1.17;0.83;;;17.50;99.90;;;;;;5094160;28;20812;-83
2021/07/28 03:17:36;;;;;;;1.33;0.70;;;17.50;99.90;;;;;;5093772;28;20443;-83
2021/07/28 03:20:03;;;;;;;2.03;1.23;;;17.40;99.90;;;;;;5093959;28;20464;-84
2021/07/28 03:22:29;;;;;;;0.90;0.80;;;17.40;99.90;;;;;;5093705;28;20950;-84
2021/07/28 03:24:57;;;;;;;1.97;0.80;;;17.40;99.90;;;;;;5093993;28;20451;-83
2021/07/28 03:27:24;;;;;;;4.10;1.23;;;17.40;99.90;;;;;;5093866;28;20451;-83
2021/07/28 03:29:51;;;;;;;0.80;0.60;;;17.40;99.90;;;;;;5093528;28;20456;-83
2021/07/28 03:32:17;;;;;;;2.80;1.23;;;17.40;99.90;;;;;;5093478;28;21009;-83
2021/07/28 03:34:44;;;;;;;0.50;0.50;;;17.40;99.90;;;;;;5093544;28;20451;-83
2021/07/28 03:37:11;;;;;;;2.70;1.20;;;17.30;99.90;;;;;;5093465;28;20959;-83
2021/07/28 03:39:38;;;;;;;0.83;0.83;;;17.30;99.90;;;;;;5093494;28;20488;-83
2021/07/28 03:42:06;;;;;;;1.27;1.10;;;17.30;99.90;;;;;;5093502;28;20441;-83
2021/07/28 03:44:33;;;;;;;1.10;0.70;;;17.30;99.90;;;;;;5093429;28;20935;-83
2021/07/28 03:47:00;;;;;;;1.63;0.60;;;17.30;99.90;;;;;;5093615;28;20951;-83
2021/07/28 03:49:26;;;;;;;0.50;0.50;;;17.30;99.90;;;;;;5093783;28;20447;-83
2021/07/28 03:51:53;;;;;;;0.90;0.70;;;17.30;99.90;;;;;;5093522;28;20475;-83
2021/07/28 03:54:20;;;;;;;2.57;1.50;;;17.30;99.90;;;;;;5093247;28;20985;-83
2021/07/28 03:56:46;;;;;;;1.17;0.90;;;17.30;99.90;;;;;;5093490;28;20474;-83
2021/07/28 03:59:14;;;;;;;1.63;0.50;;;17.30;99.90;;;;;;5093472;28;20444;-83
2021/07/28 04:01:41;;;;;;;2.40;1.03;;;17.30;99.90;;;;;;5093182;28;20448;-83
2021/07/28 04:04:08;;;;;;;1.17;1.07;;;17.30;99.90;;;;;;5093323;28;20432;-83
2021/07/28 04:06:34;;;;;;;0.77;0.77;;;17.30;99.90;;;;;;5093331;28;20456;-83
2021/07/28 04:09:01;;;;;;;2.13;0.87;;;17.30;99.90;;;;;;5093424;28;20450;-83
2021/07/28 04:11:28;;;;;;;0.83;0.83;;;17.30;99.90;;;;;;5093016;28;21036;-83
2021/07/28 04:13:54;;;;;;;1.70;0.93;;;17.20;99.90;;;;;;5097513;28;20437;-83
2021/07/28 04:16:22;;;;;;;1.10;0.80;;;17.20;99.90;;;;;;5097401;28;20436;-83
2021/07/28 04:18:49;;;;;;;1.80;0.90;;;17.20;99.90;;;;;;5097435;28;20455;-83
2021/07/28 04:21:16;;;;;;;1.00;0.77;;;17.20;99.90;;;;;;5097287;28;20816;-83
2021/07/28 04:23:42;;;;;;;2.53;1.00;;;17.10;99.90;;;;;;5097019;28;20432;-83
2021/07/28 04:26:09;;;;;;;3.83;1.20;;;17.20;99.90;;;;;;5097266;28;20781;-83
2021/07/28 04:28:36;;;;;;;1.00;0.90;;;17.20;99.90;;;;;;5097190;28;20448;-83
2021/07/28 04:31:02;;;;;;;1.17;0.60;;;17.20;99.90;;;;;;5097066;28;20483;-83
2021/07/28 04:33:30;;;;;;;0.80;0.80;;;17.20;99.90;;;;;;5097179;28;20766;-83
2021/07/28 04:35:57;;;;;;;2.10;1.17;;;17.20;99.90;;;;;;5096829;28;20440;-83
2021/07/28 04:38:24;;;;;;;1.20;1.10;;;17.20;99.90;;;;;;5096768;28;20471;-83
2021/07/28 04:40:51;;;;;;;1.10;1.00;;;17.20;99.90;;;;;;5096743;28;20459;-83
2021/07/28 04:43:18;;;;;;;1.90;1.10;;;17.30;99.90;;;;;;5096964;28;20458;-83
2021/07/28 04:45:45;;;;;;;1.50;0.70;;;17.30;99.90;;;;;;5096917;28;20482;-83
2021/07/28 04:48:12;;;;;;;1.77;1.10;;;17.30;99.90;;;;;;5096579;28;20448;-83
2021/07/28 04:50:40;;;;;;;3.47;1.33;;;17.30;99.90;;;;;;5097449;28;20464;-83
2021/07/28 04:53:06;;;;;;;1.00;0.80;;;17.20;99.90;;;;;;5096486;28;20922;-83
2021/07/28 04:55:33;;;;;;;0.70;0.60;;;17.30;99.90;;;;;;5096958;28;20436;-83
2021/07/28 04:58:00;;;;;;;0.90;0.90;;;17.30;99.90;;;;;;5096833;28;20482;-83
2021/07/28 05:00:27;;;;;;;2.00;0.80;;;17.30;99.90;;;;;;5096466;28;20455;-83
2021/07/28 05:02:53;;;;;;;2.83;1.47;;;17.30;99.90;;;;;;5096338;28;20931;-83
2021/07/28 05:05:20;;;;;;;0.67;0.67;;;17.30;99.90;;;;;;5096387;28;20439;-83
2021/07/28 05:07:48;;;;;;;1.23;1.07;;;17.30;99.90;;;;;;5096492;28;20949;-83
2021/07/28 05:10:15;;;;;;;2.00;1.03;;;17.30;99.90;;;;;;5096280;28;20451;-83
2021/07/28 05:12:42;;;;;;;0.60;0.60;;;17.30;99.90;;;;;;5096143;28;21028;-84
2021/07/28 05:15:10;;;;;;;0.90;0.70;;;17.30;99.90;;;;;;5096205;28;20429;-83
2021/07/28 05:17:37;;;;;;;4.00;1.00;;;17.40;99.90;;;;;;5096113;28;20437;-83
2021/07/28 05:20:04;;;;;;;1.67;0.90;;;17.40;99.90;;;;;;5096151;28;20475;-83
2021/07/28 05:22:31;;;;;;;0.53;0.53;;;17.40;99.90;;;;;;5095992;28;20475;-83
2021/07/28 05:24:59;;;;;;;0.60;0.60;;;17.40;99.90;;;;;;5095379;28;20447;-83
2021/07/28 05:27:26;;;;;;;2.50;1.17;;;17.40;99.90;;;;;;5096932;28;20455;-83
2021/07/28 05:29:52;;;;;;;0.80;0.80;;;17.40;99.90;;;;;;5095987;28;20464;-83
2021/07/28 05:32:21;;;;;;;1.73;1.00;;;17.40;99.90;;;;;;5096103;28;20878;-84
2021/07/28 05:34:48;;;;;;;1.10;0.93;;;17.40;99.90;;;;;;5096123;28;20523;-83
2021/07/28 05:37:14;;;;;;;0.80;0.67;;;17.50;99.90;;;;;;5095772;28;20448;-83
2021/07/28 05:39:41;;;;;;;0.73;0.73;;;17.50;99.90;;;;;;5095656;28;20480;-84
2021/07/28 05:42:10;;;;;;;1.77;0.60;;;17.50;99.90;;;;;;5095596;28;20448;-83
2021/07/28 05:44:36;;;;;;;0.70;0.70;;;17.50;99.90;;;;;;5095687;28;20817;-83
2021/07/28 05:47:03;;;;;;;3.53;1.50;;;17.50;99.90;;;;;;5095822;28;20788;-83
2021/07/28 05:49:30;;;;;;;1.17;0.73;;;17.50;99.90;;;;;;5096500;28;20778;-83
2021/07/28 05:51:57;;;;;;;1.23;0.77;;;17.40;99.90;;;;;;5095547;28;20506;-83
2021/07/28 05:54:23;;;;;;;0.97;0.97;;;17.40;99.90;;;;;;5095461;28;20459;-83
2021/07/28 05:56:50;;;;;;;1.50;1.03;;;17.40;99.90;;;;;;5095592;28;20824;-84
2021/07/28 05:59:18;;;;;;;1.03;0.77;;;17.50;99.90;;;;;;5095578;28;20454;-84
2021/07/28 06:01:45;;;;;;;1.07;0.90;;;17.40;99.90;;;;;;5095498;28;20467;-84
2021/07/28 06:04:12;;;;;;;1.23;0.80;;;17.50;99.90;;;;;;5095350;28;20448;-83
2021/07/28 06:06:38;;;;;;;1.30;1.17;;;17.40;99.90;;;;;;5095898;28;20839;-84
2021/07/28 06:09:05;;;;;;;1.10;0.70;;;17.50;99.90;;;;;;5095074;28;20432;-84
2021/07/28 06:11:32;;;;;;;1.13;0.70;;;17.40;99.90;;;;;;5095092;28;20495;-84
2021/07/28 06:13:58;;;;;;;2.10;0.87;;;17.40;99.90;;;;;;5095185;28;20452;-83
2021/07/28 06:16:27;;;;;;;0.90;0.80;;;17.30;99.90;;;;;;5095411;28;20455;-84
2021/07/28 06:18:54;;;;;;;1.13;1.03;;;17.30;99.90;;;;;;5094851;28;20452;-84
2021/07/28 06:21:21;;;;;;;2.37;1.00;;;17.30;99.90;;;;;;5094925;28;20479;-84
2021/07/28 06:23:47;;;;;;;2.20;1.07;;;17.30;99.90;;;;;;5094909;28;20452;-84
2021/07/28 06:26:14;;;;;;;1.27;0.90;;;17.30;99.90;;;;;;5094902;28;20808;-84
2021/07/28 06:28:41;;;;;;;12.10;1.17;;;17.30;99.90;;;;;;5094802;28;20451;-84
2021/07/28 06:31:07;;;;;;;1.00;0.73;;;17.30;99.90;;;;;;5094688;28;20467;-84
2021/07/28 06:33:36;;;;;;;0.60;0.57;;;17.20;99.90;;;;;;5094842;28;20458;-84
2021/07/28 06:36:02;;;;;;;0.60;0.57;;;17.20;99.90;;;;;;5094717;28;20455;-85
2021/07/28 06:38:29;;;;;;;1.90;1.30;;;17.10;99.90;;;;;;5094417;28;20482;-85
2021/07/28 06:40:56;;;;;;;2.30;1.50;;;17.00;99.90;;;;;;5094490;28;20475;-85
2021/07/28 06:43:22;;;;;;;1.10;1.00;;;16.90;99.90;;;;;;5094403;28;20920;-85
2021/07/28 06:45:49;;;;;;;0.83;0.67;;;16.90;99.90;;;;;;5094634;28;20451;-85
2021/07/28 06:48:16;;;;;;;1.00;1.00;;;16.90;99.90;;;;;;5094702;28;20966;-86
2021/07/28 06:50:44;;;;;;;1.10;0.60;;;16.80;99.90;;;;;;5094590;28;20468;-85
2021/07/28 06:53:10;;;;;;;0.70;0.70;;;16.70;99.90;;;;;;5094205;28;20472;-85
2021/07/28 06:55:39;;;;;;;1.43;1.00;;;16.70;99.90;;;;;;5094611;28;20448;-86
2021/07/28 06:58:05;;;;;;;0.70;0.70;;;16.70;99.90;;;;;;5094841;28;20887;-85
2021/07/28 07:00:32;;;;;;;2.13;1.00;;;16.70;99.90;;;;;;5094405;28;20467;-85
2021/07/28 07:02:59;;;;;;;1.57;0.90;;;16.70;99.90;;;;;;5094010;28;20935;-85
2021/07/28 07:05:27;;;;;;;2.57;1.00;;;16.70;99.90;;;;;;5096229;28;20444;-85
2021/07/28 07:07:55;;;;;;;3.70;1.63;;;16.60;99.90;;;;;;5094035;28;20412;-85
2021/07/28 07:10:22;;;;;;;2.27;1.13;;;16.70;99.90;;;;;;5093892;28;20975;-85
2021/07/28 07:12:49;;;;;;;0.77;0.70;;;16.60;99.90;;;;;;5093897;28;20456;-85
2021/07/28 07:15:16;;;;;;;2.37;1.93;;;16.60;99.90;;;;;;5094062;28;20939;-85
2021/07/28 07:17:43;;;;;;;0.83;0.83;;;16.70;99.90;;;;;;5094022;28;20428;-85
2021/07/28 07:20:11;;;;;;;0.90;0.60;;;16.70;99.90;;;;;;5094146;28;20467;-85
2021/07/28 07:22:37;;;;;;;0.70;0.70;;;16.70;99.90;;;;;;5093717;28;20425;-85
2021/07/28 07:25:07;;;;;;;3.70;0.87;;;16.80;99.90;;;;;;5093824;28;20424;-85
2021/07/28 07:27:34;;;;;;;1.30;0.70;;;16.80;99.90;;;;;;5094092;28;20864;-84
2021/07/28 07:30:01;;;;;;;0.93;0.80;;;16.80;99.90;;;;;;5093984;28;20475;-84
2021/07/28 07:32:29;;;;;;;0.70;0.50;;;16.90;99.90;;;;;;5093751;28;20478;-84
2021/07/28 07:34:57;;;;;;;0.90;0.90;;;16.90;99.90;;;;;;5094429;28;20529;-84
2021/07/28 07:37:24;;;;;;;0.90;0.80;;;16.90;99.90;;;;;;5094010;28;20436;-84
2021/07/28 07:39:50;;;;;;;0.70;0.70;;;17.00;99.90;;;;;;5093506;28;20488;-85
2021/07/28 07:42:19;;;;;;;2.07;1.00;;;16.90;99.90;;;;;;5093555;28;20943;-84
2021/07/28 07:44:47;;;;;;;1.63;0.97;;;16.90;99.90;;;;;;5093751;28;20448;-84
2021/07/28 07:47:13;;;;;;;0.70;0.60;;;16.90;99.90;;;;;;5093317;28;20447;-84
2021/07/28 07:49:40;;;;;;;0.70;0.70;;;16.90;99.90;;;;;;5093277;28;20986;-84
2021/07/28 07:52:07;;;;;;;1.30;0.90;;;16.90;99.90;;;;;;5093570;28;20487;-85
2021/07/28 07:54:34;;;;;;;5.10;0.73;;;16.80;99.90;;;;;;5093990;28;20436;-85
2021/07/28 07:57:01;;;;;;;1.53;0.77;;;16.80;99.90;;;;;;5093824;28;20447;-84
2021/07/28 07:59:29;;;;;;;0.97;0.90;;;16.80;99.90;;;;;;5093280;28;20444;-84
2021/07/28 08:01:56;;;;;;;1.07;0.90;;;16.80;99.90;;;;;;5093668;28;20444;-84
2021/07/28 08:04:23;;;;;;;4.60;1.20;;;16.70;99.90;;;;;;5093963;28;20459;-86
2021/07/28 08:06:50;;;;;;;1.30;1.20;;;16.80;99.90;;;;;;5093643;28;20448;-85
2021/07/28 08:09:17;;;;;;;0.83;0.60;;;16.80;99.90;;;;;;5093300;28;20497;-84
2021/07/28 08:11:44;;;;;;;0.97;0.80;;;16.90;99.90;;;;;;5093740;28;20417;-84
2021/07/28 08:14:10;;;;;;;2.87;1.00;;;16.90;99.90;;;;;;5093700;28;20940;-84
2021/07/28 08:16:39;;;;;;;0.80;0.80;;;16.90;99.90;;;;;;5093408;28;20444;-84
2021/07/28 08:19:06;;;;;;;1.60;1.27;;;16.90;99.90;;;;;;5093361;28;20455;-84
2021/07/28 08:21:33;;;;;;;3.60;0.73;;;16.90;99.90;;;;;;5093413;28;20503;-85
2021/07/28 08:24:00;;;;;;;2.70;0.60;;;16.90;99.90;;;;;;5093488;28;20448;-84
2021/07/28 08:26:26;;;;;;;1.60;1.07;;;16.90;99.90;;;;;;5093392;28;20443;-84
2021/07/28 08:28:53;;;;;;;0.90;0.80;;;17.00;99.90;;;;;;5093261;28;20452;-84
2021/07/28 08:31:20;;;;;;;3.67;0.80;;;17.10;99.90;;;;;;5093515;28;20478;-84
2021/07/28 08:33:48;;;;;;;0.70;0.70;;;17.10;99.90;;;;;;5093037;28;20486;-84
2021/07/28 08:36:15;;;;;;;0.87;0.70;;;17.20;99.90;;;;;;5093355;28;20833;-84
2021/07/28 08:38:41;;;;;;;0.83;0.80;;;17.20;99.90;;;;;;5092975;28;20482;-85
2021/07/28 08:41:08;;;;;;;1.20;1.03;;;17.20;99.90;;;;;;5092900;28;20482;-84
2021/07/28 08:43:37;;;;;;;1.80;0.87;;;17.20;99.90;;;;;;5093422;28;20451;-84
2021/07/28 08:46:06;;;;;;;2.27;1.87;;;17.30;99.90;;;;;;5093479;28;20451;-84
2021/07/28 08:48:34;;;;;;;1.53;0.97;;;17.30;99.90;;;;;;5093429;28;20939;-84
2021/07/28 08:51:04;;;;;;;1.37;1.03;;;17.40;99.90;;;;;;5093304;28;20471;-84
2021/07/28 08:53:31;;;;;;;2.40;1.43;;;17.50;99.90;;;;;;5092921;28;20848;-84
2021/07/28 08:56:00;;;;;;;1.70;1.00;;;17.50;99.90;;;;;;5093089;28;20803;-85
2021/07/28 08:58:28;;;;;;;0.70;0.70;;;17.60;99.90;;;;;;5092848;28;20436;-85
2021/07/28 09:00:56;;;;;;;3.87;1.67;;;17.60;99.90;;;;;;5096636;28;20875;-84
2021/07/28 09:03:23;;;;;;;0.67;0.67;;;17.70;99.90;;;;;;5096657;28;20443;-84
2021/07/28 09:05:51;;;;;;;1.27;0.90;;;17.80;99.90;;;;;;5096721;28;20474;-84
2021/07/28 09:08:27;;;;;;;1.53;0.70;;;17.90;99.90;;;;;;5096573;28;20432;-84
2021/07/28 09:10:55;;;;;;;1.13;1.03;;;18.10;99.90;;;;;;5096354;28;20448;-84
2021/07/28 09:13:34;;;;;;;1.70;0.60;;;18.20;99.90;;;;;;5096688;28;20483;-84
2021/07/28 09:16:02;;;;;;;0.70;0.70;;;18.30;99.90;;;;;;5096788;28;20443;-85
2021/07/28 09:18:31;;;;;;;1.53;1.17;;;18.50;99.90;;;;;;5096375;28;20448;-84
2021/07/28 09:20:58;;;;;;;2.00;0.70;;;18.60;99.90;;;;;;5096751;28;20467;-85
2021/07/28 09:23:38;;;;;;;0.70;0.70;;;18.70;99.90;;;;;;5097262;28;20439;-85
2021/07/28 09:26:33;;;;;;;0.60;0.60;;;18.80;99.90;;;;;;5097075;28;20475;-84
2021/07/28 09:29:06;;;;;;;0.70;0.70;;;18.90;99.90;;;;;;5096342;28;20487;-85
2021/07/28 09:31:37;;;;;;;1.33;0.60;;;18.90;99.90;;;;;;5095920;28;20440;-84
2021/07/28 09:34:31;;;;;;;1.00;0.70;;;19.00;99.90;;;;;;5095835;28;20467;-85
2021/07/28 09:36:59;;;;;;;1.60;0.83;;;19.00;99.90;;;;;;5095838;28;20511;-84
2021/07/28 09:39:29;;;;;;;1.10;1.00;;;19.00;99.90;;;;;;5095651;28;20476;-84
2021/07/28 09:41:57;;;;;;;2.77;1.23;;;19.00;99.90;;;;;;5096215;28;20816;-84
2021/07/28 09:44:26;;;;;;;1.00;0.70;;;19.10;99.90;;;;;;5095820;28;20432;-85
2021/07/28 09:47:04;;;;;;;0.90;0.90;;;19.10;99.90;;;;;;5095951;28;20408;-85
2021/07/28 09:49:31;;;;;;;1.27;0.97;;;19.20;99.90;;;;;;5095827;28;20428;-85
2021/07/28 09:51:58;;;;;;;1.33;1.03;;;19.30;99.90;;;;;;5095703;28;20421;-84
2021/07/28 09:54:29;;;;;;;1.47;0.77;;;19.50;99.90;;;;;;5095479;28;20482;-85
2021/07/28 09:56:57;;;;;;;1.03;0.93;;;19.70;99.90;;;;;;5095930;28;20425;-85
2021/07/28 09:59:24;;;;;;;0.90;0.90;;;19.90;99.90;;;;;;5095546;28;20896;-85
2021/07/28 10:01:51;;;;;;;0.90;0.70;;;20.10;99.90;;;;;;5095492;28;20447;-86
2021/07/28 10:04:20;;;;;;;1.07;0.97;;;20.10;99.90;;;;;;5095509;28;20455;-84
2021/07/28 10:06:49;;;;;;;2.70;0.90;;;20.20;99.90;;;;;;5095344;28;20443;-86
2021/07/28 10:09:17;;;;;;;1.03;0.63;;;20.40;99.90;;;;;;5095455;28;20774;-85
2021/07/28 10:11:47;;;;;;;1.00;0.67;;;20.40;99.90;;;;;;5095154;28;20531;-86
2021/07/28 10:14:17;;;;;;;1.53;0.80;;;20.20;99.90;;;;;;5095448;28;20526;-84
2021/07/28 10:16:44;;;;;;;1.67;0.83;;;20.10;99.90;;;;;;5096183;28;20435;-85
2021/07/28 10:19:12;;;;;;;0.80;0.80;;;20.10;99.90;;;;;;5095070;28;20421;-84
2021/07/28 10:21:40;;;;;;;0.93;0.57;;;20.00;99.90;;;;;;5095443;28;20467;-83
2021/07/28 10:24:09;;;;;;;2.20;0.70;;;20.00;99.90;;;;;;5095354;28;20424;-85
2021/07/28 10:26:39;;;;;;;0.90;0.70;;;19.90;99.90;;;;;;5095424;28;20447;-85
2021/07/28 10:29:09;;;;;;;1.30;0.77;;;19.80;99.90;;;;;;5095065;28;20451;-85
2021/07/28 10:31:46;;;;;;;1.33;0.70;;;19.80;99.90;;;;;;5094858;28;20472;-85
2021/07/28 10:34:24;;;;;;;1.20;1.10;;;19.70;99.90;;;;;;5094912;28;20467;-85
2021/07/28 10:36:53;;;;;;;1.10;1.00;;;19.70;99.90;;;;;;5094981;28;20479;-84
2021/07/28 10:39:39;;;;;;;1.00;0.80;;;19.70;99.90;;;;;;5094635;28;20494;-85
2021/07/28 10:42:07;;;;;;;2.83;0.80;;;19.70;99.90;;;;;;5094915;28;20485;-84
2021/07/28 10:45:06;;;;;;;0.73;0.60;;;19.80;99.90;;;;;;5094562;28;20432;-86
2021/07/28 10:47:42;;;;;;;1.37;0.70;;;20.20;99.90;;;;;;5094594;28;20404;-84
2021/07/28 10:50:33;;;;;;;1.43;0.73;;;20.80;99.90;;;;;;5094733;28;20494;-85
2021/07/28 10:53:01;;;;;;;0.80;0.70;;;21.30;99.90;;;;;;5094134;28;20507;-85
2021/07/28 10:55:28;;;;;;;1.97;0.80;;;21.60;99.90;;;;;;5094342;28;20416;-85
2021/07/28 10:58:25;;;;;;;1.20;1.10;;;21.70;99.90;;;;;;5094743;28;20431;-84
2021/07/28 11:01:02;;;;;;;0.60;0.60;;;21.70;99.90;;;;;;5094511;28;20475;-84
2021/07/28 11:03:37;;;;;;;2.10;0.63;;;21.70;99.90;;;;;;5094108;28;20427;-85
2021/07/28 11:06:24;;;;;;;1.77;0.93;;;21.50;99.90;;;;;;5094308;28;20583;-85
2021/07/28 11:08:51;;;;;;;0.80;0.80;;;21.20;99.90;;;;;;5094456;28;20809;-85
2021/07/28 11:11:24;;;;;;;1.43;0.83;;;21.30;99.90;;;;;;5094245;28;20490;-85
2021/07/28 11:13:51;;;;;;;0.73;0.73;;;21.60;99.90;;;;;;5093903;28;20471;-85
2021/07/28 11:16:17;;;;;;;1.00;0.70;;;21.60;99.90;;;;;;5093940;28;20443;-85
2021/07/28 11:18:46;;;;;;;0.70;0.60;;;21.50;99.90;;;;;;5094344;28;20434;-85
2021/07/28 11:21:15;;;;;;;1.07;0.70;;;21.60;99.90;;;;;;5093670;28;20495;-84
2021/07/28 11:23:47;;;;;;;0.80;0.73;;;21.60;99.90;;;;;;5093520;28;20780;-83
2021/07/28 11:26:17;;;;;;;0.60;0.60;;;21.60;99.90;;;;;;5093974;28;20519;-82
2021/07/28 11:28:45;;;;;;;1.47;1.00;;;21.50;99.90;;;;;;5093744;28;20458;-83
2021/07/28 11:31:12;;;;;;;0.83;0.80;;;21.50;99.90;;;;;;5093737;28;20475;-82
2021/07/28 11:33:39;;;;;;;0.70;0.57;;;21.70;99.90;;;;;;5093789;28;20471;-81
2021/07/28 11:36:07;;;;;;;1.33;0.90;;;21.60;99.90;;;;;;5093721;28;20435;-82
2021/07/28 11:38:35;;;;;;;0.90;0.50;;;21.60;99.90;;;;;;5093270;28;20586;-82
2021/07/28 11:41:04;;;;;;;0.80;0.50;;;21.70;99.90;;;;;;5093486;28;20469;-82
2021/07/28 11:43:34;;;;;;;0.80;0.80;;;21.80;99.90;;;;;;5093422;28;20930;-82
2021/07/28 11:46:02;;;;;;;3.03;0.73;;;21.70;99.90;;;;;;5093661;28;20447;-82
2021/07/28 11:48:30;;;;;;;1.37;0.90;;;21.80;99.90;;;;;;5093293;28;20431;-82
2021/07/28 11:50:57;;;;;;;0.70;0.60;;;21.90;99.90;;;;;;5093160;28;20486;-82
2021/07/28 11:53:27;;;;;;;1.37;1.17;;;21.90;99.90;;;;;;5093092;28;20966;-80
2021/07/28 11:55:54;;;;;;;1.13;0.73;;;21.80;99.90;;;;;;5093646;28;20431;-82
2021/07/28 11:58:22;;;;;;;1.27;0.93;;;21.80;99.90;;;;;;5093441;28;20432;-81
2021/07/28 12:00:49;;;;;;;0.83;0.70;;;21.90;99.90;;;;;;5093285;28;20463;-82
2021/07/28 12:03:26;;;;;;;0.60;0.60;;;21.90;99.90;;;;;;5093408;28;20432;-82
2021/07/28 12:06:03;;;;;;;0.90;0.90;;;22.00;99.90;;;;;;5093417;28;20431;-82
2021/07/28 12:08:33;;;;;;;1.07;0.80;;;22.00;99.90;;;;;;5093360;28;20824;-83
2021/07/28 12:11:05;;;;;;;2.33;0.50;;;22.00;99.90;;;;;;5093288;28;20470;-81
2021/07/28 12:13:49;;;;;;;1.13;0.87;;;22.10;99.90;;;;;;5093283;28;20467;-82
2021/07/28 12:16:16;;;;;;;0.80;0.70;;;21.90;99.90;;;;;;5093435;28;20435;-81
2021/07/28 12:18:45;;;;;;;0.87;0.53;;;21.80;99.90;;;;;;5093284;28;20432;-82
2021/07/28 12:21:12;;;;;;;0.80;0.80;;;21.90;99.90;;;;;;5092903;28;21047;-81
2021/07/28 12:23:50;;;;;;;0.60;0.50;;;22.00;99.90;;;;;;5093303;28;20432;-81
2021/07/28 12:26:17;;;;;;;0.70;0.50;;;22.00;99.90;;;;;;5093249;28;20455;-82
2021/07/28 12:28:47;;;;;;;1.57;1.10;;;22.20;99.90;;;;;;5093241;28;20416;-82
2021/07/28 12:31:25;;;;;;;0.70;0.63;;;22.00;99.90;;;;;;5092885;28;21013;-81
2021/07/28 12:33:52;;;;;;;1.00;0.60;;;22.10;99.90;;;;;;5095049;28;21020;-81
2021/07/28 12:36:26;;;;;;;1.20;1.10;;;22.10;99.90;;;;;;5097325;28;20424;-82
2021/07/28 12:38:54;;;;;;;3.70;1.47;;;22.00;99.90;;;;;;5096923;28;20466;-82
2021/07/28 12:41:21;;;;;;;0.60;0.60;;;22.10;99.90;;;;;;5096773;28;20471;-81
2021/07/28 12:43:50;;;;;;;0.87;0.70;;;22.10;99.90;;;;;;5096890;28;20436;-82
2021/07/28 12:46:17;;;;;;;0.60;0.60;;;22.10;99.90;;;;;;5097012;28;20446;-82
2021/07/28 12:48:44;;;;;;;0.93;0.73;;;22.10;99.90;;;;;;5096850;28;20423;-82
2021/07/28 12:51:11;;;;;;;0.53;0.50;;;22.00;99.90;;;;;;5096436;28;20985;-81
2021/07/28 12:53:38;;;;;;;0.50;0.50;;;22.00;99.90;;;;;;5096366;28;20460;-82
2021/07/28 12:56:06;;;;;;;0.70;0.70;;;21.90;99.90;;;;;;5096663;28;20431;-81